x

Keaton Beach, Fl (ktnf1) Weather Station

10:00am - Wed 10th Feb 2016 All times are CST. -6 hours from GMT.

  • Wind
    16mph, 20mph gusts
  • Air Temp 41°f
  • Sea Pressure 1024.8mb
  • Keaton Beach, Fl
  • Keaton Beach, Fl

More Historic Weather Station data

Upgrade to MSW Pro to gain access to the past 30 days of data for over 8000 Wavebouys and Weather Stations around the globe.

Join Pro

Comparision Forecast

View Surf forecast
   
Wed 02/10 10:00am 16 20 mph 1024.8mb 41f
9:00am 14 22 mph 1024.4mb 41f
8:00am 11 17 mph 1023.7mb 40f
7:00am 7 11 mph 1022.9mb 38f
6:00am 13 17 mph 1021.9mb 42f
5:00am 20 24 mph 1020.9mb 45f
4:00am 6 11 mph 1020.4mb 44f
3:00am 1 3 mph 1020mb 41f
2:00am  -  mph 1019.7mb 39f
1:00am 2 3 mph 1019.9mb 41f
12:00am 3 8 mph 1019.6mb 44f
Tue 02/09 11:00pm 21 26 mph 1019.1mb 50f
10:00pm 17 21 mph 1018.8mb 50f
9:00pm 21 24 mph 1018.2mb 50f
8:00pm 26 31 mph 1017.4mb 50f
7:00pm 21 25 mph 1016.6mb 50f
6:00pm 22 26 mph 1015mb 51f
5:00pm 23 26 mph 1013.9mb 51f
4:00pm 23 28 mph 1013.4mb 51f
3:00pm 30 34 mph 1012.9mb 51f
7:00am 29 33 mph 1017.2mb 46f
6:00am 28 36 mph 1016.7mb 47f
5:00am 23 26 mph 1016.3mb 47f
4:00am 23 30 mph 1015.8mb 47f
3:00am 28 33 mph 1015.3mb 47f
2:00am 24 30 mph 1015.4mb 48f
1:00am 25 31 mph 1014.8mb 50f
12:00am 23 29 mph 1014.1mb 51f
Mon 02/08 11:00pm 21 26 mph 1013.6mb 53f
10:00pm 23 31 mph 1012.8mb 54f
9:00pm 25 30 mph 1012mb 55f
8:00pm 29 32 mph 1011.2mb 56f
7:00pm 30 33 mph 1010.4mb 57f
6:00pm 30 37 mph 1010mb 58f
5:00pm 22 24 mph 1009.8mb 59f
4:00pm 17 18 mph 1010.4mb 58f
3:00pm 18 21 mph 1011.1mb 58f
2:00pm 14 15 mph 1011.5mb 57f
1:00pm 9 10 mph 1013.2mb 55f
12:00pm 9 10 mph 1014.7mb 55f
11:00am 9
mph
1016.8mb 54f
10:00am 9 10 mph 1017.6mb 54f
9:00am 14 16 mph 1017.9mb 54f
8:00am 10 13 mph 1017.9mb 52f
7:00am 10 11 mph 1017.6mb 50f
6:00am 7 9 mph 1017.9mb 50f
5:00am 9 11 mph 1017.6mb 50f
4:00am 14 16 mph 1017.4mb 50f
3:00am 5 8 mph 1017.4mb 51f
2:00am 14 17 mph 1017.6mb 52f
1:00am 13 15 mph 1018.1mb 53f
12:00am 10 11 mph 1018.3mb 53f
Sun 02/07 11:00pm 7 9 mph 1018.9mb 53f
10:00pm 2
mph
1019.6mb 50f
9:00pm 2
mph
1019.3mb 49f
8:00pm 3 5 mph 1018.6mb 50f
7:00pm 2 3 mph 1018mb 51f
6:00pm 2 3 mph 1017.3mb 53f
5:00pm 5 7 mph 1016.8mb 55f
4:00pm 6 9 mph 1016.6mb 57f
3:00pm 9 15 mph 1016.7mb 56f
2:00pm 14 18 mph 1017.3mb 55f
1:00pm 13 18 mph 1017.9mb 55f
12:00pm 10 16 mph 1019.3mb 54f
11:00am 9 16 mph 1020.6mb 53f
10:00am 11 16 mph 1021.2mb 51f
9:00am 9 11 mph 1020.8mb 48f
8:00am 8 15 mph 1020.9mb 45f
7:00am 6 10 mph 1020mb 41f
6:00am 6 9 mph 1019.8mb 41f
5:00am 8 15 mph 1019.1mb 42f
4:00am 7 9 mph 1019.6mb 43f
3:00am 5 7 mph 1019.3mb 43f
2:00am 9 14 mph 1017.8mb 42f
1:00am 5 6 mph 1020.1mb 43f
12:00am 9 14 mph 1020.4mb 44f
Sat 02/06 11:00pm 8 10 mph 1020.5mb 44f
10:00pm 7 9 mph 1021.2mb 44f
9:00pm 3 5 mph 1021.8mb 44f
8:00pm 3 5 mph 1021.8mb 44f
7:00pm 10 16 mph 1020.9mb 44f
6:00pm 9 14 mph 1021.4mb 44f